Hemingway, South Carolina
Current Conditions -  °F | °C
As of 3:35 AM on Monday 24 Nov 2014 (Local Time) from KHYW Reporting Station
Broken Clouds Broken Clouds  
Wind Chill: 66°   Ceiling: 3200
Heat Index: 66°   Visibility: 7mi
Dew Point: 66°   Wind: 5mph
Humidity: 100%   Direction: 200°SSW
Pressure: 29.83"   Gusts: NA
Location:  33.75°N, 79.45°W
Report Text: KHYW 240835Z AUTO 20004KT 7SM SCT027 BKN032 BKN049 19/19 A2983 RMK AO2 LTG DSNT SE
Loading
Personal Weather Stations






























Interactive Weather Map New forecast layout! Learn more

10-Day Weather Forecast

Advertisements
Track Severe Weather on mobile